Time;durP1;ratioP1;P1;durP2;ratioP2;P2;SDS_P1;SDS_P2;PMS_P1;PMS_P2;Temp;Humidity;BMP_temperature;BMP_pressure;BME280_temperature;BME280_humidity;BME280_pressure;Samples;Min_cycle;Max_cycle;Signal;HPM_P1;HPM_P2
2023/06/20 00:02:43;;;;;;;9.25;8.45;;;24.10;93.40;;;;;;5034066;28;20122;-57
2023/06/20 00:05:29;;;;;;;8.90;8.00;;;24.10;93.30;;;;;;5034346;28;20405;-55
2023/06/20 00:08:15;;;;;;;9.20;8.50;;;24.10;93.00;;;;;;5017239;28;20038;-55
2023/06/20 00:11:01;;;;;;;9.55;8.68;;;24.10;92.90;;;;;;5014788;28;20030;-57
2023/06/20 00:13:47;;;;;;;9.52;8.60;;;24.00;93.10;;;;;;5014336;28;20435;-55
2023/06/20 00:16:34;;;;;;;8.95;8.15;;;24.00;93.10;;;;;;5015026;28;20438;-61
2023/06/20 00:19:20;;;;;;;10.32;8.95;;;23.90;93.20;;;;;;5016900;28;20537;-55
2023/06/20 00:22:06;;;;;;;9.30;8.45;;;23.90;93.40;;;;;;5029784;28;20115;-53
2023/06/20 00:24:52;;;;;;;9.63;8.63;;;23.90;93.30;;;;;;5033799;28;20418;-53
2023/06/20 00:27:38;;;;;;;10.10;9.13;;;23.80;93.30;;;;;;5033490;28;20416;-56
2023/06/20 00:30:24;;;;;;;9.10;8.20;;;23.80;93.40;;;;;;5034870;28;20021;-54
2023/06/20 00:33:11;;;;;;;9.80;9.00;;;23.70;93.30;;;;;;5032563;28;20057;-54
2023/06/20 00:35:57;;;;;;;9.25;8.45;;;23.80;93.40;;;;;;5033266;28;20726;-51
2023/06/20 00:38:48;;;;;;;10.40;9.40;;;23.70;93.20;;;;;;5031845;28;20091;-53
2023/06/20 00:41:34;;;;;;;10.10;9.10;;;23.70;93.10;;;;;;5033229;28;20509;-51
2023/06/20 00:44:21;;;;;;;10.23;9.32;;;23.70;93.00;;;;;;5033632;28;20521;-53
2023/06/20 00:47:07;;;;;;;9.38;8.63;;;23.70;93.20;;;;;;5034586;28;20464;-54
2023/06/20 00:49:53;;;;;;;9.00;8.30;;;23.60;93.50;;;;;;5033975;28;20104;-56
2023/06/20 00:52:39;;;;;;;10.35;9.05;;;23.60;94.30;;;;;;5017981;28;20030;-54
2023/06/20 00:55:29;;;;;;;9.20;8.40;;;23.70;94.30;;;;;;5017549;28;20037;-55
2023/06/20 00:58:15;;;;;;;11.77;9.50;;;23.60;94.20;;;;;;5014570;28;20395;-54
2023/06/20 01:01:01;;;;;;;11.65;10.60;;;23.60;94.40;;;;;;5016549;28;20402;-59
2023/06/20 01:03:50;;;;;;;11.20;10.10;;;23.60;94.60;;;;;;5014423;28;20030;-58
2023/06/20 01:06:47;;;;;;;14.35;12.25;;;23.60;94.50;;;;;;5014431;28;20029;-58
2023/06/20 01:09:52;;;;;;;10.57;9.68;;;23.60;94.00;;;;;;5014390;28;20030;-59
2023/06/20 01:13:05;;;;;;;10.43;9.30;;;23.60;93.80;;;;;;5012646;28;20026;-59
2023/06/20 01:16:42;;;;;;;10.77;9.48;;;23.60;94.00;;;;;;5025706;28;20034;-59
2023/06/20 01:19:47;;;;;;;9.75;8.82;;;23.50;94.50;;;;;;5021237;28;20092;-58
2023/06/20 01:22:39;;;;;;;10.38;9.30;;;23.50;94.30;;;;;;5032765;28;20022;-58
2023/06/20 01:25:25;;;;;;;10.13;9.25;;;23.40;94.40;;;;;;5027720;28;20022;-57
2023/06/20 01:28:50;;;;;;;10.35;9.35;;;23.40;94.60;;;;;;5012782;28;20030;-58
2023/06/20 01:31:38;;;;;;;9.57;8.68;;;23.40;94.70;;;;;;5013696;28;20052;-56
2023/06/20 01:34:29;;;;;;;9.80;9.00;;;23.30;95.20;;;;;;5015367;28;20022;-53
2023/06/20 01:37:19;;;;;;;10.77;9.55;;;23.30;95.00;;;;;;5012234;28;20026;-55
2023/06/20 01:40:09;;;;;;;9.77;9.05;;;23.30;95.00;;;;;;5013295;28;20048;-55
2023/06/20 01:42:58;;;;;;;10.85;9.88;;;23.30;95.40;;;;;;5027644;28;20067;-52
2023/06/20 01:45:46;;;;;;;10.40;9.50;;;23.30;95.50;;;;;;5032407;28;20036;-54
2023/06/20 01:48:34;;;;;;;10.48;9.63;;;23.20;95.30;;;;;;5031723;28;20037;-51
2023/06/20 01:51:21;;;;;;;10.38;9.48;;;23.20;95.60;;;;;;5015666;28;20402;-57
2023/06/20 01:54:08;;;;;;;11.10;10.20;;;23.20;95.70;;;;;;5017003;28;20494;-56
2023/06/20 01:56:57;;;;;;;11.05;10.15;;;23.30;95.50;;;;;;5031276;28;20029;-56
2023/06/20 01:59:44;;;;;;;10.65;9.68;;;23.20;95.70;;;;;;5030674;28;20033;-55
2023/06/20 02:02:32;;;;;;;11.07;9.98;;;23.10;95.90;;;;;;5033190;28;20040;-57
2023/06/20 02:05:19;;;;;;;10.73;9.70;;;23.00;96.00;;;;;;5031757;28;20440;-55
2023/06/20 02:08:05;;;;;;;10.48;9.57;;;22.90;96.40;;;;;;5030455;28;20032;-56
2023/06/20 02:10:52;;;;;;;10.77;9.75;;;23.00;96.40;;;;;;5031004;28;20401;-56
2023/06/20 02:13:38;;;;;;;10.70;9.75;;;22.90;96.50;;;;;;5030940;28;20034;-57
2023/06/20 02:16:26;;;;;;;11.00;10.00;;;22.90;96.70;;;;;;5011221;28;20030;-53
2023/06/20 02:19:12;;;;;;;11.15;10.05;;;22.90;96.30;;;;;;5010892;28;20034;-56
2023/06/20 02:21:58;;;;;;;10.70;9.85;;;22.90;96.20;;;;;;5012046;28;20034;-57
2023/06/20 02:24:49;;;;;;;15.30;10.40;;;22.90;96.20;;;;;;5013285;28;20025;-57
2023/06/20 02:27:39;;;;;;;10.70;9.80;;;22.90;96.10;;;;;;5010152;28;20101;-56
2023/06/20 02:30:29;;;;;;;11.40;10.27;;;22.80;96.10;;;;;;5012346;28;20068;-57
2023/06/20 02:33:16;;;;;;;10.88;9.98;;;22.80;96.20;;;;;;5012774;28;20018;-57
2023/06/20 02:36:03;;;;;;;11.05;9.93;;;22.80;96.10;;;;;;5012296;28;20026;-58
2023/06/20 02:38:49;;;;;;;11.38;10.38;;;22.70;96.40;;;;;;5011801;28;20495;-56
2023/06/20 02:41:35;;;;;;;11.38;10.38;;;22.80;96.30;;;;;;5011859;28;20041;-61
2023/06/20 02:44:21;;;;;;;10.60;9.80;;;22.70;96.20;;;;;;5011802;28;20109;-57
2023/06/20 02:47:29;;;;;;;10.75;9.65;;;22.80;96.20;;;;;;5014010;28;20044;-57
2023/06/20 02:50:41;;;;;;;11.05;10.15;;;22.80;96.10;;;;;;5035687;28;20040;-54
2023/06/20 02:53:32;;;;;;;10.52;9.30;;;22.70;96.20;;;;;;5029964;28;20635;-55
2023/06/20 02:56:20;;;;;;;11.20;10.18;;;22.80;96.30;;;;;;5028218;28;20367;-59
2023/06/20 02:59:09;;;;;;;10.75;9.65;;;22.70;96.40;;;;;;5021817;28;20040;-54
2023/06/20 03:01:57;;;;;;;10.65;9.65;;;22.70;96.40;;;;;;5039743;28;20018;-53
2023/06/20 03:04:46;;;;;;;11.40;10.40;;;22.70;96.50;;;;;;5036805;28;20109;-54
2023/06/20 03:07:33;;;;;;;11.32;10.20;;;22.80;97.00;;;;;;5024043;28;20128;-54
2023/06/20 03:10:21;;;;;;;12.43;11.23;;;22.80;97.20;;;;;;5015819;28;20042;-57
2023/06/20 03:13:07;;;;;;;11.60;10.43;;;22.50;97.10;;;;;;5017062;28;20029;-56
2023/06/20 03:15:55;;;;;;;11.50;10.50;;;22.50;97.50;;;;;;5017574;28;20030;-57
2023/06/20 03:18:40;;;;;;;10.80;9.80;;;22.50;97.70;;;;;;5017526;28;20041;-55
2023/06/20 03:21:27;;;;;;;10.85;9.95;;;22.50;97.40;;;;;;5015901;28;20041;-55
2023/06/20 03:24:12;;;;;;;10.50;9.70;;;22.60;97.40;;;;;;5022713;28;20037;-54
2023/06/20 03:26:58;;;;;;;12.05;10.95;;;22.60;97.40;;;;;;5031504;28;20029;-54
2023/06/20 03:29:44;;;;;;;11.35;10.35;;;22.60;97.20;;;;;;5032299;28;20041;-57
2023/06/20 03:32:30;;;;;;;11.32;10.13;;;22.60;97.00;;;;;;5036170;28;20109;-53
2023/06/20 03:35:16;;;;;;;10.85;9.95;;;22.70;97.00;;;;;;5036520;28;20509;-55
2023/06/20 03:38:02;;;;;;;11.55;10.27;;;22.70;97.00;;;;;;5035002;28;20030;-56
2023/06/20 03:40:50;;;;;;;11.43;10.25;;;22.70;97.10;;;;;;5015827;28;20083;-55
2023/06/20 03:43:36;;;;;;;11.90;10.88;;;22.70;97.10;;;;;;5015647;28;20062;-55
2023/06/20 03:46:22;;;;;;;11.43;10.43;;;22.80;97.40;;;;;;5013793;28;20064;-57
2023/06/20 03:49:08;;;;;;;11.00;10.00;;;22.80;97.40;;;;;;5023652;28;20477;-57
2023/06/20 03:51:53;;;;;;;10.45;9.45;;;22.70;97.50;;;;;;5016906;28;21566;-58
2023/06/20 03:54:40;;;;;;;10.77;9.88;;;22.80;97.40;;;;;;5025398;28;20399;-55
2023/06/20 03:57:26;;;;;;;11.43;10.13;;;22.70;97.50;;;;;;5035681;28;20071;-58
2023/06/20 04:00:13;;;;;;;12.02;10.98;;;22.70;97.50;;;;;;5034206;28;20036;-57
2023/06/20 04:02:59;;;;;;;26.23;19.67;;;22.60;97.40;;;;;;5036070;28;20401;-57
2023/06/20 04:05:45;;;;;;;12.73;11.43;;;22.60;97.50;;;;;;5037095;28;20110;-57
2023/06/20 04:08:31;;;;;;;11.60;10.60;;;22.70;97.50;;;;;;5034207;28;20030;-57
2023/06/20 04:11:17;;;;;;;11.05;10.02;;;22.70;97.30;;;;;;5034066;28;20025;-52
2023/06/20 04:14:03;;;;;;;11.20;10.30;;;22.70;97.20;;;;;;5033484;28;20030;-57
2023/06/20 04:16:49;;;;;;;11.32;10.32;;;22.70;97.20;;;;;;5033367;28;20036;-54
2023/06/20 04:19:36;;;;;;;11.35;10.00;;;22.60;97.50;;;;;;5033695;28;20033;-54
2023/06/20 04:22:26;;;;;;;11.43;10.43;;;22.50;97.40;;;;;;5033565;28;20037;-57
2023/06/20 04:25:13;;;;;;;13.45;12.25;;;22.50;97.40;;;;;;5034470;28;20470;-57
2023/06/20 04:27:59;;;;;;;11.57;10.48;;;22.50;97.30;;;;;;5033647;28;20040;-58
2023/06/20 04:30:45;;;;;;;10.55;9.55;;;22.60;97.40;;;;;;5034704;28;20084;-58
2023/06/20 04:33:31;;;;;;;11.27;9.07;;;22.70;97.30;;;;;;5034199;28;20072;-57
2023/06/20 04:36:17;;;;;;;11.20;10.10;;;22.70;97.00;;;;;;5033697;28;20022;-57
2023/06/20 04:39:03;;;;;;;11.50;10.48;;;22.80;96.90;;;;;;5033434;28;20036;-58
2023/06/20 04:41:49;;;;;;;10.70;9.90;;;22.80;96.70;;;;;;5034906;28;20458;-56
2023/06/20 04:44:36;;;;;;;10.48;9.48;;;22.60;97.10;;;;;;5033654;28;20037;-56
2023/06/20 04:47:22;;;;;;;10.73;9.55;;;22.60;97.20;;;;;;5033169;28;20497;-58
2023/06/20 04:50:09;;;;;;;10.55;9.65;;;22.60;97.30;;;;;;5033439;28;20505;-56
2023/06/20 04:52:55;;;;;;;10.02;9.18;;;22.60;97.40;;;;;;5033666;28;20025;-54
2023/06/20 04:55:41;;;;;;;13.30;10.05;;;22.60;97.70;;;;;;5033242;28;20026;-54
2023/06/20 04:58:28;;;;;;;11.52;10.18;;;22.60;98.00;;;;;;5012975;28;20042;-52
2023/06/20 05:01:17;;;;;;;11.30;10.48;;;22.60;98.10;;;;;;5025687;28;20034;-55
2023/06/20 05:04:03;;;;;;;11.02;9.93;;;22.60;98.30;;;;;;5015144;28;20068;-56
2023/06/20 05:06:49;;;;;;;11.55;10.40;;;22.70;98.50;;;;;;5015026;28;20034;-54
2023/06/20 05:09:35;;;;;;;11.63;10.68;;;22.60;98.30;;;;;;5013429;28;20038;-54
2023/06/20 05:12:21;;;;;;;12.18;10.95;;;22.60;98.30;;;;;;5013479;28;20121;-54
2023/06/20 05:15:08;;;;;;;11.95;11.05;;;22.60;98.50;;;;;;5013163;28;20029;-55
2023/06/20 05:17:54;;;;;;;11.65;10.48;;;22.50;98.60;;;;;;5012956;28;20501;-53
2023/06/20 05:20:39;;;;;;;12.73;10.55;;;22.50;98.90;;;;;;5012460;28;20100;-54
2023/06/20 05:23:26;;;;;;;12.68;11.52;;;22.40;98.90;;;;;;5013148;28;20030;-52
2023/06/20 05:26:12;;;;;;;14.63;13.23;;;22.20;99.40;;;;;;5011836;28;20466;-56
2023/06/20 05:28:58;;;;;;;21.27;17.35;;;22.10;99.70;;;;;;5012874;28;20044;-54
2023/06/20 05:31:44;;;;;;;18.02;16.17;;;22.20;99.90;;;;;;5013047;28;20026;-54
2023/06/20 05:34:30;;;;;;;13.80;12.55;;;22.30;99.90;;;;;;5011806;28;20458;-54
2023/06/20 05:37:16;;;;;;;14.02;12.73;;;22.30;99.90;;;;;;5014727;28;20050;-52
2023/06/20 05:40:05;;;;;;;14.55;13.20;;;22.30;99.90;;;;;;5014820;28;20498;-53
2023/06/20 05:42:51;;;;;;;13.93;12.60;;;22.30;99.90;;;;;;5013321;28;20026;-55
2023/06/20 05:45:37;;;;;;;14.20;12.90;;;22.30;99.90;;;;;;5012186;28;20475;-55
2023/06/20 05:48:25;;;;;;;13.80;12.40;;;22.30;99.90;;;;;;5013345;28;20131;-55
2023/06/20 05:51:14;;;;;;;20.48;14.10;;;22.10;99.90;;;;;;5012806;28;20026;-57
2023/06/20 05:54:00;;;;;;;22.48;16.88;;;22.00;99.90;;;;;;5032115;28;20032;-53
2023/06/20 05:56:46;;;;;;;24.23;18.10;;;21.90;99.90;;;;;;5025908;28;20030;-61
2023/06/20 05:59:32;;;;;;;19.67;15.93;;;21.60;99.90;;;;;;5014107;28;20025;-59
2023/06/20 06:02:21;;;;;;;17.35;15.75;;;21.50;99.90;;;;;;5012660;28;20033;-56
2023/06/20 06:05:07;;;;;;;17.33;14.93;;;21.30;99.90;;;;;;5012695;28;20037;-58
2023/06/20 06:07:53;;;;;;;19.05;17.05;;;21.40;99.90;;;;;;5013195;28;20029;-54
2023/06/20 06:10:39;;;;;;;18.10;16.17;;;21.50;99.90;;;;;;5012481;28;20030;-57
2023/06/20 06:13:25;;;;;;;19.45;17.50;;;21.30;99.90;;;;;;5013043;28;20057;-59
2023/06/20 06:16:12;;;;;;;17.48;15.80;;;21.30;99.90;;;;;;5012391;28;20045;-59
2023/06/20 06:19:00;;;;;;;20.05;17.98;;;21.30;99.90;;;;;;5012466;28;20041;-58
2023/06/20 06:21:47;;;;;;;19.60;17.58;;;21.10;99.90;;;;;;5012542;28;20128;-59
2023/06/20 06:24:33;;;;;;;24.02;17.80;;;20.60;99.90;;;;;;5012353;28;20508;-54
2023/06/20 06:27:19;;;;;;;21.92;19.63;;;20.50;99.90;;;;;;5012977;28;20030;-51
2023/06/20 06:30:06;;;;;;;20.92;18.52;;;20.40;99.90;;;;;;5012341;28;20510;-61
2023/06/20 06:32:52;;;;;;;21.38;18.95;;;20.40;99.90;;;;;;5011313;28;20105;-59
2023/06/20 06:35:39;;;;;;;24.35;18.67;;;20.40;99.90;;;;;;5012436;28;20033;-60
2023/06/20 06:38:26;;;;;;;20.98;17.40;;;20.40;99.90;;;;;;5012674;28;20030;-60
2023/06/20 06:41:11;;;;;;;19.75;17.75;;;20.40;99.90;;;;;;5012520;28;20022;-56
2023/06/20 06:43:57;;;;;;;21.23;15.73;;;20.30;99.90;;;;;;5016687;28;20067;-57
2023/06/20 06:46:44;;;;;;;19.05;16.08;;;20.20;99.90;;;;;;5014115;28;20108;-56
2023/06/20 06:49:31;;;;;;;17.75;13.95;;;20.30;99.90;;;;;;5010787;28;20026;-57
2023/06/20 06:52:17;;;;;;;13.98;12.15;;;20.40;99.90;;;;;;5012971;28;20030;-55
2023/06/20 06:55:04;;;;;;;13.82;11.45;;;20.40;99.90;;;;;;5028654;28;20486;-57
2023/06/20 06:57:50;;;;;;;13.40;10.32;;;20.30;99.90;;;;;;5032338;28;20021;-58
2023/06/20 07:00:35;;;;;;;14.32;11.00;;;20.30;99.90;;;;;;5032612;28;20022;-60
2023/06/20 07:03:21;;;;;;;11.25;10.10;;;20.30;99.90;;;;;;5020862;28;20028;-58
2023/06/20 07:06:07;;;;;;;14.88;10.60;;;20.20;99.90;;;;;;5028629;28;20037;-57
2023/06/20 07:08:53;;;;;;;11.95;10.80;;;20.30;99.90;;;;;;5031747;28;20033;-58
2023/06/20 07:11:39;;;;;;;12.93;11.70;;;20.30;99.90;;;;;;5031564;28;20022;-59
2023/06/20 07:14:26;;;;;;;12.63;11.13;;;20.30;99.90;;;;;;5032201;28;20030;-59
2023/06/20 07:17:12;;;;;;;11.73;10.68;;;20.30;99.90;;;;;;5031310;28;20036;-59
2023/06/20 07:19:58;;;;;;;13.13;10.90;;;20.30;99.90;;;;;;5032075;28;20038;-58
2023/06/20 07:22:45;;;;;;;11.70;10.52;;;20.40;99.90;;;;;;5030837;28;20025;-59
2023/06/20 07:25:31;;;;;;;16.52;14.73;;;20.30;99.90;;;;;;5031245;28;20030;-59
2023/06/20 07:28:17;;;;;;;16.10;13.60;;;20.40;99.90;;;;;;5030103;28;20026;-59
2023/06/20 07:31:03;;;;;;;16.15;12.73;;;20.30;99.90;;;;;;5031813;28;20509;-58
2023/06/20 07:33:49;;;;;;;13.73;12.35;;;20.50;99.90;;;;;;5032368;28;20553;-60
2023/06/20 07:36:35;;;;;;;14.55;13.15;;;20.50;99.90;;;;;;5035100;28;20493;-59
2023/06/20 07:39:21;;;;;;;13.70;12.40;;;20.50;99.90;;;;;;5035835;28;20033;-58
2023/06/20 07:42:07;;;;;;;13.82;12.50;;;20.40;99.90;;;;;;5038041;28;20044;-56
2023/06/20 07:44:53;;;;;;;13.57;12.27;;;20.40;99.90;;;;;;5034834;28;20030;-57
2023/06/20 07:47:39;;;;;;;13.20;11.65;;;20.40;99.90;;;;;;5035414;28;20029;-59
2023/06/20 07:50:25;;;;;;;14.70;13.23;;;20.40;99.90;;;;;;5034292;28;20037;-59
2023/06/20 07:53:11;;;;;;;17.15;12.75;;;20.40;99.90;;;;;;5035474;28;20117;-55
2023/06/20 07:55:59;;;;;;;13.00;11.90;;;20.40;99.90;;;;;;5035714;28;20033;-57
2023/06/20 07:58:47;;;;;;;13.27;12.07;;;20.40;99.90;;;;;;5015370;28;20030;-58
2023/06/20 08:01:33;;;;;;;14.80;13.45;;;20.30;99.90;;;;;;5014428;28;20045;-58
2023/06/20 08:04:18;;;;;;;17.48;15.60;;;20.30;99.90;;;;;;5014481;28;20491;-59
2023/06/20 08:07:05;;;;;;;14.65;13.15;;;20.30;99.90;;;;;;5015252;28;20453;-59
2023/06/20 08:09:51;;;;;;;15.32;13.85;;;20.20;99.90;;;;;;5014994;28;20042;-59
2023/06/20 08:12:37;;;;;;;16.40;14.77;;;20.10;99.90;;;;;;5014215;28;20053;-60
2023/06/20 08:15:23;;;;;;;18.63;16.67;;;20.10;99.90;;;;;;5015730;28;20454;-59
2023/06/20 08:18:09;;;;;;;17.98;16.23;;;20.10;99.90;;;;;;5014250;28;20561;-59
2023/06/20 08:20:55;;;;;;;19.58;17.83;;;20.10;99.90;;;;;;5014025;28;20026;-59
2023/06/20 08:23:41;;;;;;;20.02;18.13;;;20.20;99.90;;;;;;5013896;28;20379;-58
2023/06/20 08:26:27;;;;;;;21.05;19.13;;;20.20;99.90;;;;;;5013456;28;20041;-59
2023/06/20 08:29:14;;;;;;;21.17;19.08;;;20.20;99.90;;;;;;5013967;28;20080;-57
2023/06/20 08:32:00;;;;;;;21.85;19.52;;;20.40;99.90;;;;;;5014206;28;20490;-58
2023/06/20 08:34:49;;;;;;;21.20;19.25;;;20.60;99.90;;;;;;5012737;28;20025;-58
2023/06/20 08:37:40;;;;;;;22.52;20.40;;;20.80;99.90;;;;;;5013451;28;20034;-57
2023/06/20 08:40:26;;;;;;;22.65;20.63;;;20.80;99.90;;;;;;5013205;28;20556;-57
2023/06/20 08:43:16;;;;;;;22.30;20.15;;;21.00;99.90;;;;;;5014119;28;20388;-56
2023/06/20 08:46:02;;;;;;;24.35;22.05;;;21.10;99.90;;;;;;5013771;28;20029;-57
2023/06/20 08:48:48;;;;;;;24.17;21.88;;;21.20;99.90;;;;;;5015053;28;20026;-58
2023/06/20 08:51:38;;;;;;;23.70;21.50;;;21.50;99.90;;;;;;5013632;28;20037;-59
2023/06/20 08:54:29;;;;;;;24.98;22.50;;;21.70;99.90;;;;;;5022531;28;20029;-55
2023/06/20 08:57:18;;;;;;;25.58;23.05;;;21.90;99.90;;;;;;5033093;28;20112;-58
2023/06/20 09:00:06;;;;;;;26.60;24.17;;;22.10;99.90;;;;;;5033403;28;20065;-57
2023/06/20 09:02:53;;;;;;;27.00;24.30;;;22.30;99.90;;;;;;5033030;28;20038;-58
2023/06/20 09:05:41;;;;;;;26.42;24.08;;;22.60;99.90;;;;;;5034325;28;20482;-57
2023/06/20 09:08:39;;;;;;;28.65;25.75;;;22.80;99.90;;;;;;5033567;28;20506;-55
2023/06/20 09:11:25;;;;;;;27.23;24.55;;;22.70;99.90;;;;;;5037496;28;20030;-58
2023/06/20 09:14:11;;;;;;;27.85;25.27;;;22.70;99.90;;;;;;5034080;28;20033;-58
2023/06/20 09:16:57;;;;;;;26.00;23.48;;;22.90;99.90;;;;;;5031664;28;20021;-57
2023/06/20 09:19:45;;;;;;;25.63;23.42;;;22.90;99.90;;;;;;5032455;28;20124;-58
2023/06/20 09:22:31;;;;;;;26.95;24.42;;;22.80;99.90;;;;;;5046045;28;20032;-58
2023/06/20 09:25:26;;;;;;;25.35;23.02;;;23.00;99.90;;;;;;5035315;28;20116;-58
2023/06/20 09:28:15;;;;;;;25.45;23.20;;;23.20;99.90;;;;;;5033063;28;20064;-57
2023/06/20 09:31:02;;;;;;;26.10;23.83;;;23.40;99.90;;;;;;5032366;28;20132;-56
2023/06/20 09:33:49;;;;;;;24.50;22.33;;;23.40;99.90;;;;;;5045323;28;20021;-56
2023/06/20 09:36:35;;;;;;;25.25;23.02;;;23.30;99.90;;;;;;5032021;28;20037;-57
2023/06/20 09:39:21;;;;;;;25.42;23.05;;;23.20;99.90;;;;;;5033479;28;20088;-58
2023/06/20 09:42:12;;;;;;;26.52;23.92;;;23.30;99.90;;;;;;5031689;28;20044;-58
2023/06/20 09:44:58;;;;;;;25.42;23.38;;;23.40;99.90;;;;;;5033288;28;20064;-58
2023/06/20 09:47:45;;;;;;;27.17;24.63;;;23.30;99.90;;;;;;5031557;28;20055;-57
2023/06/20 09:50:34;;;;;;;26.00;23.60;;;23.40;99.90;;;;;;5031882;28;20056;-52
2023/06/20 09:53:28;;;;;;;28.05;25.58;;;23.50;99.90;;;;;;5044797;28;20028;-52
2023/06/20 09:56:16;;;;;;;26.58;23.98;;;23.50;99.90;;;;;;5032227;28;20439;-55
2023/06/20 09:59:05;;;;;;;25.88;23.50;;;23.50;99.90;;;;;;5031400;28;20021;-54
2023/06/20 10:01:51;;;;;;;25.13;22.90;;;23.70;99.90;;;;;;5032551;28;20509;-56
2023/06/20 10:04:42;;;;;;;26.35;23.98;;;23.80;99.90;;;;;;5031963;28;20037;-55
2023/06/20 10:07:29;;;;;;;27.90;25.50;;;23.90;99.90;;;;;;5031172;28;20112;-52
2023/06/20 10:10:17;;;;;;;26.85;24.25;;;24.10;99.90;;;;;;5031075;28;20033;-55
2023/06/20 10:13:04;;;;;;;25.27;23.08;;;24.10;99.90;;;;;;5033111;28;20032;-58
2023/06/20 10:15:50;;;;;;;23.95;21.85;;;24.30;99.90;;;;;;5031644;28;20564;-55
2023/06/20 10:18:36;;;;;;;25.73;23.60;;;24.70;99.90;;;;;;5031928;28;20545;-53
2023/06/20 10:21:59;;;;;;;22.67;20.75;;;25.00;99.90;;;;;;5044496;28;20109;-54
2023/06/20 10:24:49;;;;;;;21.63;19.73;;;25.40;99.90;;;;;;5032276;28;20087;-56
2023/06/20 10:27:35;;;;;;;22.95;20.85;;;25.50;99.90;;;;;;5031599;28;20026;-52
2023/06/20 10:30:46;;;;;;;19.48;17.58;;;25.40;99.90;;;;;;5032205;28;20136;-55
2023/06/20 10:33:34;;;;;;;19.45;17.75;;;25.50;99.90;;;;;;5031777;28;20020;-56
2023/06/20 10:36:20;;;;;;;17.80;16.25;;;25.60;99.90;;;;;;5032024;28;20014;-58
2023/06/20 10:39:09;;;;;;;18.02;16.35;;;25.60;99.90;;;;;;5031800;28;20029;-57
2023/06/20 10:41:54;;;;;;;20.02;18.33;;;25.90;99.90;;;;;;5043843;28;20048;-55
2023/06/20 10:44:40;;;;;;;18.98;17.27;;;26.10;99.90;;;;;;5030933;28;20033;-53
2023/06/20 10:47:27;;;;;;;17.00;15.50;;;26.30;99.90;;;;;;5031573;28;20466;-55
2023/06/20 10:50:14;;;;;;;16.80;15.15;;;26.50;99.90;;;;;;5031364;28;20494;-54
2023/06/20 10:53:01;;;;;;;15.88;14.48;;;26.50;99.90;;;;;;5032645;28;20436;-52
2023/06/20 10:55:47;;;;;;;17.85;16.35;;;26.70;99.90;;;;;;5031311;28;20017;-56
2023/06/20 10:58:34;;;;;;;14.88;13.68;;;26.70;99.50;;;;;;5031306;28;20029;-56
2023/06/20 11:01:25;;;;;;;18.67;16.83;;;26.60;99.90;;;;;;5031407;28;20391;-53
2023/06/20 11:04:13;;;;;;;16.85;15.35;;;26.70;99.90;;;;;;5031581;28;20021;-57
2023/06/20 11:07:06;;;;;;;17.60;14.45;;;26.70;99.90;;;;;;5031076;28;20460;-55
2023/06/20 11:09:51;;;;;;;13.60;12.40;;;26.80;99.90;;;;;;5033454;28;20573;-50
2023/06/20 11:12:42;;;;;;;16.67;15.25;;;26.70;99.60;;;;;;5035567;28;20513;-55
2023/06/20 11:15:31;;;;;;;15.88;14.38;;;26.80;99.90;;;;;;5035158;28;20107;-53
2023/06/20 11:18:17;;;;;;;15.68;14.27;;;26.80;99.90;;;;;;5035639;28;20030;-55
2023/06/20 11:21:05;;;;;;;17.10;15.60;;;26.90;99.90;;;;;;5035238;28;20033;-54
2023/06/20 11:24:01;;;;;;;14.32;13.02;;;26.90;99.90;;;;;;5035122;28;20029;-54
2023/06/20 11:26:47;;;;;;;13.52;12.43;;;26.90;99.90;;;;;;5034302;28;20029;-51
2023/06/20 11:29:36;;;;;;;12.95;11.90;;;26.80;99.60;;;;;;5033700;28;20238;-54
2023/06/20 11:32:22;;;;;;;13.13;11.65;;;26.80;99.60;;;;;;5034855;28;20032;-56
2023/06/20 11:35:08;;;;;;;15.18;13.85;;;26.90;99.50;;;;;;5035259;28;20520;-54
2023/06/20 11:37:54;;;;;;;13.52;12.32;;;26.80;99.30;;;;;;5033468;28;20030;-53
2023/06/20 11:40:42;;;;;;;14.38;13.07;;;26.80;99.30;;;;;;5034566;28;20030;-56
2023/06/20 11:43:38;;;;;;;13.77;12.48;;;26.80;99.40;;;;;;5034220;28;20103;-57
2023/06/20 11:46:24;;;;;;;13.60;12.40;;;26.90;99.50;;;;;;5035946;28;20069;-57
2023/06/20 11:49:10;;;;;;;14.15;12.73;;;26.90;99.10;;;;;;5035090;28;20478;-57
2023/06/20 11:51:56;;;;;;;12.60;11.50;;;27.00;99.10;;;;;;5034709;28;20022;-53
2023/06/20 11:54:49;;;;;;;13.68;12.38;;;27.20;99.00;;;;;;5033729;28;20052;-53
2023/06/20 11:57:37;;;;;;;13.57;12.37;;;27.40;98.80;;;;;;5034274;28;20025;-53
2023/06/20 12:00:24;;;;;;;13.93;12.70;;;27.60;99.10;;;;;;5034406;28;20029;-53
2023/06/20 12:03:10;;;;;;;14.25;12.80;;;27.70;98.80;;;;;;5035023;28;20041;-55
2023/06/20 12:05:56;;;;;;;14.88;13.55;;;27.70;98.90;;;;;;5038673;28;20026;-54
2023/06/20 12:08:55;;;;;;;15.25;13.85;;;27.70;98.40;;;;;;5038476;28;20033;-54
2023/06/20 12:11:48;;;;;;;14.13;12.93;;;27.80;98.40;;;;;;5035109;28;20025;-55
2023/06/20 12:14:37;;;;;;;13.65;12.45;;;27.80;98.60;;;;;;5034097;28;20044;-55
2023/06/20 12:17:24;;;;;;;16.02;14.55;;;27.90;98.50;;;;;;5033418;28;20042;-57
2023/06/20 12:20:10;;;;;;;13.57;12.40;;;27.90;98.20;;;;;;5034463;28;20049;-53
2023/06/20 12:22:57;;;;;;;15.85;14.30;;;28.00;98.50;;;;;;5034677;28;20033;-56
2023/06/20 12:25:43;;;;;;;15.77;14.48;;;28.10;98.50;;;;;;5032976;28;20037;-56
2023/06/20 12:28:30;;;;;;;16.30;14.70;;;28.00;97.30;;;;;;5035309;28;20120;-52
2023/06/20 12:31:16;;;;;;;14.55;13.25;;;28.00;97.00;;;;;;5034214;28;20036;-55
2023/06/20 12:34:02;;;;;;;14.07;12.77;;;28.10;97.50;;;;;;5034128;28;20061;-54
2023/06/20 12:36:48;;;;;;;15.73;14.23;;;28.30;97.10;;;;;;5033343;28;20112;-58
2023/06/20 12:39:35;;;;;;;14.85;13.35;;;28.50;97.30;;;;;;5033865;28;20033;-58
2023/06/20 12:42:21;;;;;;;14.13;12.95;;;28.70;96.50;;;;;;5033475;28;20037;-57
2023/06/20 12:45:08;;;;;;;14.35;13.13;;;28.80;96.50;;;;;;5032685;28;20044;-57
2023/06/20 12:47:54;;;;;;;15.30;13.80;;;28.70;96.60;;;;;;5033792;28;20059;-57
2023/06/20 12:50:40;;;;;;;14.55;13.23;;;28.70;96.50;;;;;;5034260;28;20033;-57
2023/06/20 12:53:28;;;;;;;13.85;12.73;;;28.70;96.40;;;;;;5034715;28;20036;-56
2023/06/20 12:56:14;;;;;;;14.32;13.23;;;28.70;95.60;;;;;;5024643;28;20025;-56
2023/06/20 12:59:00;;;;;;;15.45;14.05;;;28.80;95.20;;;;;;5035822;28;20100;-55
2023/06/20 13:01:46;;;;;;;13.15;12.05;;;29.10;95.50;;;;;;5027389;28;20034;-56
2023/06/20 13:04:33;;;;;;;14.35;12.93;;;29.30;95.90;;;;;;5014627;28;20034;-54
2023/06/20 13:07:22;;;;;;;14.63;13.38;;;29.50;95.80;;;;;;5011733;28;20116;-57
2023/06/20 13:10:08;;;;;;;15.82;14.32;;;29.50;95.10;;;;;;5012835;28;20099;-56
2023/06/20 13:12:57;;;;;;;14.20;12.90;;;29.50;94.60;;;;;;5013167;28;20436;-56
2023/06/20 13:15:43;;;;;;;14.50;13.30;;;29.70;94.90;;;;;;5014598;28;20034;-55
2023/06/20 13:18:29;;;;;;;13.68;12.57;;;29.90;94.70;;;;;;5023076;28;20087;-54
2023/06/20 13:21:15;;;;;;;13.45;12.35;;;30.10;94.70;;;;;;5033104;28;20037;-57
2023/06/20 13:24:01;;;;;;;13.93;12.63;;;30.10;94.60;;;;;;5029059;28;20236;-56
2023/06/20 13:26:47;;;;;;;15.05;13.75;;;30.20;94.70;;;;;;5017070;28;20033;-56
2023/06/20 13:29:33;;;;;;;14.55;13.23;;;30.10;93.80;;;;;;5016188;28;20034;-57
2023/06/20 13:32:19;;;;;;;13.77;12.57;;;29.70;93.90;;;;;;5033101;28;20038;-58
2023/06/20 13:35:07;;;;;;;13.30;12.20;;;30.00;93.90;;;;;;5035358;28;20015;-57
2023/06/20 13:37:53;;;;;;;13.60;12.30;;;30.20;94.10;;;;;;5022680;28;20067;-55
2023/06/20 13:40:38;;;;;;;13.57;12.48;;;30.40;93.30;;;;;;5033059;28;20568;-52
2023/06/20 13:43:24;;;;;;;13.43;12.10;;;30.40;93.00;;;;;;5032485;28;20121;-55
2023/06/20 13:46:11;;;;;;;13.57;12.48;;;30.20;92.90;;;;;;5026733;28;20147;-55
2023/06/20 13:48:57;;;;;;;13.60;12.48;;;30.40;93.10;;;;;;5024686;28;20054;-55
2023/06/20 13:51:43;;;;;;;13.73;12.38;;;30.60;92.40;;;;;;5017054;28;20033;-56
2023/06/20 13:54:29;;;;;;;13.05;11.80;;;30.80;92.50;;;;;;5021878;28;20693;-55
2023/06/20 13:57:15;;;;;;;17.75;16.15;;;30.70;91.60;;;;;;5025291;28;20172;-55
2023/06/20 14:00:10;;;;;;;13.52;12.32;;;30.70;91.50;;;;;;5028201;28;20073;-55
2023/06/20 14:02:56;;;;;;;13.43;12.23;;;30.90;91.50;;;;;;5025722;28;20441;-56
2023/06/20 14:05:42;;;;;;;15.18;13.68;;;30.90;91.10;;;;;;5024576;28;20030;-55
2023/06/20 14:08:28;;;;;;;13.07;11.80;;;31.20;91.50;;;;;;5026140;28;20116;-56
2023/06/20 14:11:14;;;;;;;13.27;12.13;;;31.50;90.80;;;;;;5031517;28;20033;-52
2023/06/20 14:14:00;;;;;;;13.13;11.93;;;31.90;90.20;;;;;;5030315;28;20022;-53
2023/06/20 14:16:46;;;;;;;12.20;11.13;;;31.90;89.50;;;;;;5031043;28;20064;-55